DLH4XV EDDL-EDDF
Flight info
| Callsign | DLH4XV |
|---|---|
| Flight time | 0h 23m |
| Altitude | 21000 |
| Route | COL5Z COL T911 ROLIS ROLIS5A |
| Aircraft | A321/M-SDE3FGHIRWY/LB1 |
Departure
| Time | 2026-04-19 04:53 |
|---|---|
| Airport | Düsseldorf Airport (EDDL) |
Arrival
| Time | 2026-04-19 05:17 |
|---|---|
| Airport | Frankfurt Main Airport (EDDF) |
| Time | Latitude | Longitude | Altitude | Speed | Heading |
|---|---|---|---|---|---|
| 2026-04-19 04:25 | 51.28359 | 6.77123 | 130 ft | 0 kts | 142° |
| 2026-04-19 04:45 | 51.28363 | 6.77119 | 129 ft | 3 kts | 142° |
| 2026-04-19 04:45 | 51.28384 | 6.77094 | 129 ft | 4 kts | 148° |
| 2026-04-19 04:45 | 51.28406 | 6.77082 | 124 ft | 4 kts | 196° |
| 2026-04-19 04:46 | 51.28426 | 6.77104 | 126 ft | 4 kts | 233° |
| 2026-04-19 04:46 | 51.28434 | 6.77120 | 128 ft | 0 kts | 233° |
| 2026-04-19 04:49 | 51.28430 | 6.77113 | 129 ft | 2 kts | 233° |
| 2026-04-19 04:49 | 51.28409 | 6.77069 | 125 ft | 8 kts | 233° |
| 2026-04-19 04:49 | 51.28367 | 6.76980 | 127 ft | 13 kts | 233° |
| 2026-04-19 04:49 | 51.28390 | 6.76847 | 125 ft | 17 kts | 321° |
| 2026-04-19 04:50 | 51.28498 | 6.76795 | 122 ft | 17 kts | 28° |
| 2026-04-19 04:50 | 51.28571 | 6.76938 | 125 ft | 17 kts | 53° |
| 2026-04-19 04:50 | 51.28641 | 6.77090 | 124 ft | 17 kts | 53° |
| 2026-04-19 04:50 | 51.28715 | 6.77248 | 131 ft | 18 kts | 53° |
| 2026-04-19 04:51 | 51.28794 | 6.77413 | 125 ft | 19 kts | 52° |
| 2026-04-19 04:51 | 51.28878 | 6.77588 | 124 ft | 20 kts | 52° |
| 2026-04-19 04:51 | 51.28967 | 6.77772 | 124 ft | 21 kts | 52° |
| 2026-04-19 04:51 | 51.29058 | 6.77963 | 126 ft | 22 kts | 53° |
| 2026-04-19 04:52 | 51.29148 | 6.78154 | 134 ft | 20 kts | 52° |
| 2026-04-19 04:52 | 51.29255 | 6.78194 | 137 ft | 17 kts | 329° |
| 2026-04-19 04:52 | 51.29329 | 6.78104 | 140 ft | 9 kts | 303° |
| 2026-04-19 04:52 | 51.29293 | 6.77998 | 138 ft | 17 kts | 232° |
| 2026-04-19 04:53 | 51.29083 | 6.77552 | 127 ft | 89 kts | 233° |
| 2026-04-19 04:53 | 51.28569 | 6.76474 | 127 ft | 152 kts | 233° |
| 2026-04-19 04:53 | 51.27865 | 6.74986 | 480 ft | 176 kts | 234° |
| 2026-04-19 04:53 | 51.27108 | 6.73362 | 1087 ft | 187 kts | 236° |
| 2026-04-19 04:54 | 51.26333 | 6.71673 | 1672 ft | 195 kts | 236° |
| 2026-04-19 04:54 | 51.25496 | 6.69876 | 2054 ft | 208 kts | 235° |
| 2026-04-19 04:54 | 51.24592 | 6.67965 | 2431 ft | 223 kts | 236° |
| 2026-04-19 04:54 | 51.23627 | 6.65871 | 2760 ft | 245 kts | 236° |
| 2026-04-19 04:55 | 51.22361 | 6.63932 | 3263 ft | 262 kts | 208° |
| 2026-04-19 04:55 | 51.20569 | 6.63327 | 3945 ft | 270 kts | 176° |
| 2026-04-19 04:55 | 51.18754 | 6.64103 | 4722 ft | 271 kts | 153° |
| 2026-04-19 04:55 | 51.17226 | 6.65816 | 5415 ft | 276 kts | 137° |
| 2026-04-19 04:56 | 51.15817 | 6.67924 | 6165 ft | 279 kts | 135° |
| 2026-04-19 04:56 | 51.14438 | 6.70113 | 6925 ft | 281 kts | 134° |
| 2026-04-19 04:56 | 51.13060 | 6.72356 | 7635 ft | 283 kts | 134° |
| 2026-04-19 04:56 | 51.11678 | 6.74623 | 8344 ft | 286 kts | 135° |
| 2026-04-19 04:57 | 51.10300 | 6.76878 | 9034 ft | 289 kts | 135° |
| 2026-04-19 04:57 | 51.08885 | 6.79185 | 9711 ft | 292 kts | 135° |
| 2026-04-19 04:57 | 51.07455 | 6.81514 | 10352 ft | 298 kts | 136° |
| 2026-04-19 04:57 | 51.05943 | 6.83949 | 10515 ft | 320 kts | 137° |
| 2026-04-19 04:58 | 51.04319 | 6.86545 | 10636 ft | 341 kts | 137° |
| 2026-04-19 04:58 | 51.02595 | 6.89302 | 10775 ft | 361 kts | 137° |
| 2026-04-19 04:58 | 51.00884 | 6.92330 | 11088 ft | 375 kts | 126° |
| 2026-04-19 04:58 | 50.99522 | 6.95909 | 11610 ft | 380 kts | 122° |
| 2026-04-19 04:59 | 50.98202 | 6.99512 | 12185 ft | 385 kts | 123° |
| 2026-04-19 04:59 | 50.96859 | 7.03213 | 12722 ft | 388 kts | 123° |
| 2026-04-19 04:59 | 50.95510 | 7.06951 | 13281 ft | 391 kts | 123° |
| 2026-04-19 04:59 | 50.94151 | 7.10709 | 13837 ft | 394 kts | 123° |
| 2026-04-19 05:00 | 50.92780 | 7.14490 | 14399 ft | 396 kts | 123° |
| 2026-04-19 05:00 | 50.91392 | 7.18307 | 14932 ft | 400 kts | 123° |
| 2026-04-19 05:00 | 50.90018 | 7.22081 | 15111 ft | 400 kts | 123° |
| 2026-04-19 05:00 | 50.88602 | 7.25958 | 15167 ft | 413 kts | 123° |
| 2026-04-19 05:01 | 50.87136 | 7.29949 | 15165 ft | 425 kts | 123° |
| 2026-04-19 05:01 | 50.85638 | 7.34031 | 15164 ft | 428 kts | 123° |
| 2026-04-19 05:01 | 50.84149 | 7.38100 | 15166 ft | 428 kts | 123° |
| 2026-04-19 05:01 | 50.82654 | 7.42180 | 15164 ft | 429 kts | 123° |
| 2026-04-19 05:02 | 50.81176 | 7.46208 | 15157 ft | 429 kts | 123° |
| 2026-04-19 05:02 | 50.79673 | 7.50286 | 15155 ft | 429 kts | 123° |
| 2026-04-19 05:02 | 50.78162 | 7.54374 | 15155 ft | 429 kts | 123° |
| 2026-04-19 05:02 | 50.76661 | 7.58433 | 15147 ft | 429 kts | 123° |
| 2026-04-19 05:03 | 50.75148 | 7.62515 | 15146 ft | 428 kts | 123° |
| 2026-04-19 05:03 | 50.73637 | 7.66575 | 15133 ft | 428 kts | 123° |
| 2026-04-19 05:03 | 50.72144 | 7.70579 | 15132 ft | 428 kts | 123° |
| 2026-04-19 05:03 | 50.70628 | 7.74651 | 15123 ft | 428 kts | 123° |
| 2026-04-19 05:04 | 50.69120 | 7.78707 | 15126 ft | 428 kts | 123° |
| 2026-04-19 05:04 | 50.67611 | 7.82761 | 15118 ft | 428 kts | 123° |
| 2026-04-19 05:04 | 50.66119 | 7.86761 | 15113 ft | 428 kts | 123° |
| 2026-04-19 05:04 | 50.64607 | 7.90807 | 15115 ft | 428 kts | 123° |
| 2026-04-19 05:05 | 50.63092 | 7.94848 | 15112 ft | 428 kts | 123° |
| 2026-04-19 05:05 | 50.61575 | 7.98884 | 15108 ft | 428 kts | 123° |
| 2026-04-19 05:05 | 50.60052 | 8.02929 | 15065 ft | 425 kts | 123° |
| 2026-04-19 05:05 | 50.58557 | 8.06888 | 14783 ft | 418 kts | 123° |
| 2026-04-19 05:06 | 50.57081 | 8.10796 | 14490 ft | 415 kts | 123° |
| 2026-04-19 05:06 | 50.55623 | 8.14654 | 14165 ft | 413 kts | 123° |
| 2026-04-19 05:06 | 50.54159 | 8.18532 | 13760 ft | 411 kts | 123° |
| 2026-04-19 05:06 | 50.52697 | 8.22389 | 13376 ft | 409 kts | 123° |
| 2026-04-19 05:07 | 50.51235 | 8.26238 | 12974 ft | 407 kts | 123° |
| 2026-04-19 05:07 | 50.49791 | 8.30043 | 12571 ft | 404 kts | 123° |
| 2026-04-19 05:07 | 50.48348 | 8.33839 | 12183 ft | 404 kts | 123° |
| 2026-04-19 05:07 | 50.46929 | 8.37563 | 11780 ft | 401 kts | 123° |
| 2026-04-19 05:08 | 50.45498 | 8.41320 | 11375 ft | 398 kts | 122° |
| 2026-04-19 05:08 | 50.42667 | 8.48713 | 10565 ft | 391 kts | 123° |
| 2026-04-19 05:08 | 50.41278 | 8.52308 | 10176 ft | 389 kts | 123° |
| 2026-04-19 05:09 | 50.39892 | 8.55897 | 9771 ft | 378 kts | 122° |
| 2026-04-19 05:09 | 50.38555 | 8.59377 | 9383 ft | 366 kts | 122° |
| 2026-04-19 05:09 | 50.37260 | 8.62752 | 8978 ft | 355 kts | 122° |
| 2026-04-19 05:09 | 50.35992 | 8.66030 | 8566 ft | 345 kts | 123° |
| 2026-04-19 05:10 | 50.34441 | 8.68801 | 8169 ft | 334 kts | 141° |
| 2026-04-19 05:10 | 50.32515 | 8.70640 | 7767 ft | 325 kts | 154° |
| 2026-04-19 05:10 | 50.30510 | 8.72198 | 7377 ft | 318 kts | 154° |
| 2026-04-19 05:10 | 50.28543 | 8.73725 | 6973 ft | 312 kts | 154° |
| 2026-04-19 05:11 | 50.26609 | 8.75228 | 6575 ft | 308 kts | 154° |
| 2026-04-19 05:11 | 50.24703 | 8.76707 | 6176 ft | 303 kts | 154° |
| 2026-04-19 05:11 | 50.22817 | 8.78168 | 5771 ft | 300 kts | 154° |
| 2026-04-19 05:11 | 50.20982 | 8.79588 | 5372 ft | 296 kts | 154° |
| 2026-04-19 05:12 | 50.19142 | 8.81009 | 4974 ft | 293 kts | 154° |
| 2026-04-19 05:12 | 50.17275 | 8.82215 | 4654 ft | 286 kts | 167° |
| 2026-04-19 05:12 | 50.15348 | 8.82477 | 4572 ft | 271 kts | 185° |
| 2026-04-19 05:12 | 50.13556 | 8.81857 | 4426 ft | 259 kts | 203° |
| 2026-04-19 05:13 | 50.12030 | 8.80530 | 4208 ft | 250 kts | 220° |
| 2026-04-19 05:13 | 50.10833 | 8.78637 | 3954 ft | 241 kts | 235° |
| 2026-04-19 05:13 | 50.10046 | 8.76386 | 3622 ft | 233 kts | 251° |
| 2026-04-19 05:13 | 50.09490 | 8.74035 | 3301 ft | 229 kts | 252° |
| 2026-04-19 05:14 | 50.08949 | 8.71752 | 2979 ft | 225 kts | 252° |
| 2026-04-19 05:14 | 50.08414 | 8.69489 | 2676 ft | 220 kts | 253° |
| 2026-04-19 05:14 | 50.07899 | 8.67312 | 2369 ft | 208 kts | 253° |
| 2026-04-19 05:14 | 50.07416 | 8.65287 | 2084 ft | 192 kts | 253° |
| 2026-04-19 05:15 | 50.06970 | 8.63413 | 1829 ft | 174 kts | 253° |
| 2026-04-19 05:15 | 50.06567 | 8.61718 | 1584 ft | 160 kts | 253° |
| 2026-04-19 05:15 | 50.06196 | 8.60158 | 1364 ft | 148 kts | 254° |
| 2026-04-19 05:15 | 50.05847 | 8.58692 | 1160 ft | 144 kts | 253° |
| 2026-04-19 05:16 | 50.05497 | 8.57238 | 955 ft | 142 kts | 253° |
| 2026-04-19 05:16 | 50.05162 | 8.55803 | 744 ft | 141 kts | 253° |
| 2026-04-19 05:16 | 50.04816 | 8.54383 | 545 ft | 140 kts | 253° |
| 2026-04-19 05:16 | 50.04487 | 8.52981 | 368 ft | 138 kts | 253° |
| 2026-04-19 05:17 | 50.04208 | 8.51785 | 337 ft | 82 kts | 249° |
| 2026-04-19 05:17 | 50.04108 | 8.51372 | 331 ft | 14 kts | 249° |
| 2026-04-19 05:17 | 50.04068 | 8.51220 | 327 ft | 16 kts | 247° |
| 2026-04-19 05:17 | 50.04010 | 8.51065 | 328 ft | 17 kts | 229° |
| 2026-04-19 05:18 | 50.03918 | 8.50931 | 324 ft | 19 kts | 218° |
| 2026-04-19 05:18 | 50.03812 | 8.50843 | 329 ft | 15 kts | 172° |
| 2026-04-19 05:18 | 50.03792 | 8.50965 | 332 ft | 13 kts | 71° |
| 2026-04-19 05:18 | 50.03828 | 8.51119 | 334 ft | 17 kts | 69° |
| 2026-04-19 05:19 | 50.03875 | 8.51312 | 335 ft | 21 kts | 70° |
| 2026-04-19 05:19 | 50.03930 | 8.51543 | 336 ft | 25 kts | 69° |
| 2026-04-19 05:19 | 50.03992 | 8.51798 | 332 ft | 25 kts | 70° |
| 2026-04-19 05:19 | 50.04054 | 8.52054 | 340 ft | 25 kts | 70° |
| 2026-04-19 05:20 | 50.04113 | 8.52308 | 346 ft | 24 kts | 70° |
| 2026-04-19 05:20 | 50.04171 | 8.52550 | 348 ft | 24 kts | 69° |
| 2026-04-19 05:20 | 50.04228 | 8.52789 | 356 ft | 23 kts | 70° |
| 2026-04-19 05:20 | 50.04285 | 8.53024 | 354 ft | 23 kts | 69° |
| 2026-04-19 05:21 | 50.04339 | 8.53252 | 367 ft | 21 kts | 69° |
| 2026-04-19 05:21 | 50.04385 | 8.53447 | 373 ft | 18 kts | 73° |
| 2026-04-19 05:21 | 50.04404 | 8.53637 | 375 ft | 19 kts | 83° |
| 2026-04-19 05:21 | 50.04418 | 8.53848 | 375 ft | 20 kts | 84° |
| 2026-04-19 05:22 | 50.04432 | 8.54074 | 375 ft | 22 kts | 84° |
| 2026-04-19 05:22 | 50.04448 | 8.54314 | 374 ft | 23 kts | 84° |
| 2026-04-19 05:22 | 50.04431 | 8.54586 | 369 ft | 28 kts | 113° |
| 2026-04-19 05:22 | 50.04278 | 8.54789 | 361 ft | 30 kts | 161° |
| 2026-04-19 05:23 | 50.04095 | 8.54891 | 350 ft | 28 kts | 160° |
| 2026-04-19 05:23 | 50.04022 | 8.55029 | 359 ft | 17 kts | 72° |
| 2026-04-19 05:23 | 50.04065 | 8.55210 | 356 ft | 18 kts | 70° |
| 2026-04-19 05:23 | 50.04112 | 8.55408 | 352 ft | 21 kts | 69° |
| 2026-04-19 05:24 | 50.04164 | 8.55625 | 352 ft | 22 kts | 69° |
| 2026-04-19 05:24 | 50.04219 | 8.55849 | 357 ft | 22 kts | 69° |
| 2026-04-19 05:24 | 50.04277 | 8.56057 | 356 ft | 17 kts | 39° |
| 2026-04-19 05:24 | 50.04384 | 8.56033 | 356 ft | 16 kts | 342° |
| 2026-04-19 05:25 | 50.04446 | 8.56094 | 358 ft | 12 kts | 68° |
| 2026-04-19 05:25 | 50.04476 | 8.56220 | 358 ft | 13 kts | 70° |
| 2026-04-19 05:25 | 50.04486 | 8.56304 | 356 ft | 3 kts | 130° |
| 2026-04-19 05:25 | 50.04463 | 8.56316 | 356 ft | 3 kts | 164° |
| 2026-04-19 05:26 | 50.04441 | 8.56325 | 356 ft | 2 kts | 166° |
| 2026-04-19 05:26 | 50.04433 | 8.56328 | 356 ft | 1 kts | 166° |
| 2026-04-19 05:26 | 50.04431 | 8.56329 | 361 ft | 0 kts | 166° |